sensor_id;sensor_type;location;lat;lon;timestamp;P1;durP1;ratioP1;P2;durP2;ratioP2
21705;SDS011;11014;53.076;18.208;2024-01-30T00:02:23;64.18;;;28.45;;
21705;SDS011;11014;53.076;18.208;2024-01-30T00:04:52;57.20;;;26.42;;
21705;SDS011;11014;53.076;18.208;2024-01-30T00:07:20;70.82;;;27.20;;
21705;SDS011;11014;53.076;18.208;2024-01-30T00:09:49;63.08;;;27.48;;
21705;SDS011;11014;53.076;18.208;2024-01-30T00:12:18;63.53;;;28.40;;
21705;SDS011;11014;53.076;18.208;2024-01-30T00:14:47;72.22;;;32.53;;
21705;SDS011;11014;53.076;18.208;2024-01-30T00:17:21;83.90;;;34.72;;
21705;SDS011;11014;53.076;18.208;2024-01-30T00:19:50;84.97;;;35.30;;
21705;SDS011;11014;53.076;18.208;2024-01-30T00:22:18;87.18;;;35.78;;
21705;SDS011;11014;53.076;18.208;2024-01-30T00:24:47;114.50;;;43.90;;
21705;SDS011;11014;53.076;18.208;2024-01-30T00:27:16;112.30;;;45.58;;
21705;SDS011;11014;53.076;18.208;2024-01-30T00:29:45;111.68;;;44.67;;
21705;SDS011;11014;53.076;18.208;2024-01-30T00:32:13;107.07;;;44.30;;
21705;SDS011;11014;53.076;18.208;2024-01-30T00:34:42;101.65;;;44.00;;
21705;SDS011;11014;53.076;18.208;2024-01-30T00:37:10;111.82;;;44.38;;
21705;SDS011;11014;53.076;18.208;2024-01-30T00:39:39;97.55;;;42.42;;
21705;SDS011;11014;53.076;18.208;2024-01-30T00:42:08;91.85;;;38.78;;
21705;SDS011;11014;53.076;18.208;2024-01-30T00:44:37;98.93;;;41.15;;
21705;SDS011;11014;53.076;18.208;2024-01-30T00:47:06;98.05;;;40.33;;
21705;SDS011;11014;53.076;18.208;2024-01-30T00:49:36;88.68;;;39.53;;
21705;SDS011;11014;53.076;18.208;2024-01-30T00:52:04;86.00;;;35.67;;
21705;SDS011;11014;53.076;18.208;2024-01-30T00:54:34;82.10;;;34.78;;
21705;SDS011;11014;53.076;18.208;2024-01-30T00:57:03;80.32;;;35.47;;
21705;SDS011;11014;53.076;18.208;2024-01-30T00:59:31;77.70;;;34.88;;
21705;SDS011;11014;53.076;18.208;2024-01-30T01:02:00;84.20;;;34.38;;
21705;SDS011;11014;53.076;18.208;2024-01-30T01:04:29;71.65;;;33.30;;
21705;SDS011;11014;53.076;18.208;2024-01-30T01:06:58;72.55;;;30.98;;
21705;SDS011;11014;53.076;18.208;2024-01-30T01:09:26;74.68;;;31.40;;
21705;SDS011;11014;53.076;18.208;2024-01-30T01:11:55;66.95;;;30.02;;
21705;SDS011;11014;53.076;18.208;2024-01-30T01:14:24;67.38;;;30.60;;
21705;SDS011;11014;53.076;18.208;2024-01-30T01:16:52;65.20;;;29.52;;
21705;SDS011;11014;53.076;18.208;2024-01-30T01:19:21;57.72;;;26.63;;
21705;SDS011;11014;53.076;18.208;2024-01-30T01:21:50;62.20;;;27.40;;
21705;SDS011;11014;53.076;18.208;2024-01-30T01:24:19;62.05;;;26.25;;
21705;SDS011;11014;53.076;18.208;2024-01-30T01:26:48;59.22;;;27.23;;
21705;SDS011;11014;53.076;18.208;2024-01-30T01:29:16;58.83;;;27.60;;
21705;SDS011;11014;53.076;18.208;2024-01-30T01:31:46;62.33;;;26.70;;
21705;SDS011;11014;53.076;18.208;2024-01-30T01:34:14;59.47;;;26.60;;
21705;SDS011;11014;53.076;18.208;2024-01-30T01:36:44;62.83;;;26.38;;
21705;SDS011;11014;53.076;18.208;2024-01-30T01:39:12;56.65;;;26.88;;
21705;SDS011;11014;53.076;18.208;2024-01-30T01:41:41;56.92;;;26.02;;
21705;SDS011;11014;53.076;18.208;2024-01-30T01:44:10;60.80;;;26.42;;
21705;SDS011;11014;53.076;18.208;2024-01-30T01:46:38;59.38;;;26.40;;
21705;SDS011;11014;53.076;18.208;2024-01-30T01:49:07;67.20;;;27.10;;
21705;SDS011;11014;53.076;18.208;2024-01-30T01:51:36;70.45;;;27.65;;
21705;SDS011;11014;53.076;18.208;2024-01-30T01:54:09;62.55;;;26.83;;
21705;SDS011;11014;53.076;18.208;2024-01-30T01:56:39;61.70;;;27.83;;
21705;SDS011;11014;53.076;18.208;2024-01-30T01:59:09;64.35;;;29.00;;
21705;SDS011;11014;53.076;18.208;2024-01-30T02:01:39;75.82;;;30.33;;
21705;SDS011;11014;53.076;18.208;2024-01-30T02:04:11;76.10;;;32.45;;
21705;SDS011;11014;53.076;18.208;2024-01-30T02:06:40;78.90;;;34.05;;
21705;SDS011;11014;53.076;18.208;2024-01-30T02:09:09;91.53;;;34.75;;
21705;SDS011;11014;53.076;18.208;2024-01-30T02:11:38;82.00;;;36.20;;
21705;SDS011;11014;53.076;18.208;2024-01-30T02:14:08;77.80;;;35.00;;
21705;SDS011;11014;53.076;18.208;2024-01-30T02:16:37;80.47;;;33.47;;
21705;SDS011;11014;53.076;18.208;2024-01-30T02:19:06;74.20;;;34.72;;
21705;SDS011;11014;53.076;18.208;2024-01-30T02:21:36;75.35;;;32.28;;
21705;SDS011;11014;53.076;18.208;2024-01-30T02:24:04;74.40;;;32.38;;
21705;SDS011;11014;53.076;18.208;2024-01-30T02:26:34;71.40;;;30.83;;
21705;SDS011;11014;53.076;18.208;2024-01-30T02:29:03;62.35;;;30.92;;
21705;SDS011;11014;53.076;18.208;2024-01-30T02:31:31;69.60;;;32.33;;
21705;SDS011;11014;53.076;18.208;2024-01-30T02:34:00;68.43;;;31.23;;
21705;SDS011;11014;53.076;18.208;2024-01-30T02:36:30;72.18;;;31.63;;
21705;SDS011;11014;53.076;18.208;2024-01-30T02:38:58;70.03;;;31.02;;
21705;SDS011;11014;53.076;18.208;2024-01-30T02:41:27;67.45;;;29.23;;
21705;SDS011;11014;53.076;18.208;2024-01-30T02:43:55;71.55;;;31.58;;
21705;SDS011;11014;53.076;18.208;2024-01-30T02:46:24;65.20;;;29.77;;
21705;SDS011;11014;53.076;18.208;2024-01-30T02:48:53;65.88;;;29.73;;
21705;SDS011;11014;53.076;18.208;2024-01-30T02:53:53;65.95;;;28.35;;
21705;SDS011;11014;53.076;18.208;2024-01-30T02:56:21;73.97;;;32.80;;
21705;SDS011;11014;53.076;18.208;2024-01-30T02:58:50;78.38;;;36.33;;
21705;SDS011;11014;53.076;18.208;2024-01-30T03:01:19;83.43;;;38.35;;
21705;SDS011;11014;53.076;18.208;2024-01-30T03:03:48;86.63;;;40.97;;
21705;SDS011;11014;53.076;18.208;2024-01-30T03:06:17;73.75;;;36.08;;
21705;SDS011;11014;53.076;18.208;2024-01-30T03:08:48;73.25;;;35.60;;
21705;SDS011;11014;53.076;18.208;2024-01-30T03:11:17;66.93;;;35.17;;
21705;SDS011;11014;53.076;18.208;2024-01-30T03:13:45;65.95;;;34.22;;
21705;SDS011;11014;53.076;18.208;2024-01-30T03:16:14;71.13;;;34.17;;
21705;SDS011;11014;53.076;18.208;2024-01-30T03:18:42;63.38;;;29.92;;
21705;SDS011;11014;53.076;18.208;2024-01-30T03:21:11;65.80;;;30.80;;
21705;SDS011;11014;53.076;18.208;2024-01-30T03:23:40;59.83;;;28.30;;
21705;SDS011;11014;53.076;18.208;2024-01-30T03:26:09;57.75;;;26.45;;
21705;SDS011;11014;53.076;18.208;2024-01-30T03:28:39;57.00;;;26.17;;
21705;SDS011;11014;53.076;18.208;2024-01-30T03:31:08;60.47;;;25.98;;
21705;SDS011;11014;53.076;18.208;2024-01-30T03:33:37;58.05;;;25.77;;
21705;SDS011;11014;53.076;18.208;2024-01-30T03:36:06;53.85;;;26.58;;
21705;SDS011;11014;53.076;18.208;2024-01-30T03:38:35;59.10;;;25.08;;
21705;SDS011;11014;53.076;18.208;2024-01-30T03:41:07;57.53;;;25.20;;
21705;SDS011;11014;53.076;18.208;2024-01-30T03:43:37;52.60;;;23.80;;
21705;SDS011;11014;53.076;18.208;2024-01-30T03:46:06;48.53;;;24.33;;
21705;SDS011;11014;53.076;18.208;2024-01-30T03:48:34;55.20;;;24.50;;
21705;SDS011;11014;53.076;18.208;2024-01-30T03:51:03;52.05;;;24.98;;
21705;SDS011;11014;53.076;18.208;2024-01-30T03:53:32;55.85;;;24.60;;
21705;SDS011;11014;53.076;18.208;2024-01-30T03:56:01;58.70;;;27.10;;
21705;SDS011;11014;53.076;18.208;2024-01-30T03:58:30;58.83;;;27.45;;
21705;SDS011;11014;53.076;18.208;2024-01-30T04:00:59;65.43;;;29.02;;
21705;SDS011;11014;53.076;18.208;2024-01-30T04:03:28;68.53;;;32.15;;
21705;SDS011;11014;53.076;18.208;2024-01-30T04:05:57;69.75;;;33.70;;
21705;SDS011;11014;53.076;18.208;2024-01-30T04:08:25;68.88;;;31.92;;
21705;SDS011;11014;53.076;18.208;2024-01-30T04:10:55;67.05;;;29.40;;
21705;SDS011;11014;53.076;18.208;2024-01-30T04:13:23;66.25;;;29.45;;
21705;SDS011;11014;53.076;18.208;2024-01-30T04:15:52;61.67;;;27.15;;
21705;SDS011;11014;53.076;18.208;2024-01-30T04:18:22;56.28;;;25.98;;
21705;SDS011;11014;53.076;18.208;2024-01-30T04:20:51;60.80;;;25.80;;
21705;SDS011;11014;53.076;18.208;2024-01-30T04:23:19;56.95;;;26.40;;
21705;SDS011;11014;53.076;18.208;2024-01-30T04:25:49;62.63;;;26.20;;
21705;SDS011;11014;53.076;18.208;2024-01-30T04:28:18;55.30;;;26.50;;
21705;SDS011;11014;53.076;18.208;2024-01-30T04:30:47;57.85;;;27.48;;
21705;SDS011;11014;53.076;18.208;2024-01-30T04:33:15;69.15;;;33.65;;
21705;SDS011;11014;53.076;18.208;2024-01-30T04:35:46;76.40;;;34.47;;
21705;SDS011;11014;53.076;18.208;2024-01-30T04:38:15;66.57;;;31.45;;
21705;SDS011;11014;53.076;18.208;2024-01-30T04:40:44;70.30;;;33.38;;
21705;SDS011;11014;53.076;18.208;2024-01-30T04:43:12;72.70;;;33.28;;
21705;SDS011;11014;53.076;18.208;2024-01-30T04:45:41;71.32;;;32.08;;
21705;SDS011;11014;53.076;18.208;2024-01-30T04:48:10;78.47;;;30.98;;
21705;SDS011;11014;53.076;18.208;2024-01-30T04:50:39;73.30;;;29.88;;
21705;SDS011;11014;53.076;18.208;2024-01-30T04:53:07;63.85;;;28.55;;
21705;SDS011;11014;53.076;18.208;2024-01-30T04:55:36;73.57;;;30.40;;
21705;SDS011;11014;53.076;18.208;2024-01-30T04:58:04;63.03;;;29.30;;
21705;SDS011;11014;53.076;18.208;2024-01-30T05:00:33;72.35;;;29.55;;
21705;SDS011;11014;53.076;18.208;2024-01-30T05:03:02;60.88;;;28.35;;
21705;SDS011;11014;53.076;18.208;2024-01-30T05:05:31;68.30;;;30.55;;
21705;SDS011;11014;53.076;18.208;2024-01-30T05:07:59;68.00;;;29.70;;
21705;SDS011;11014;53.076;18.208;2024-01-30T05:10:32;72.97;;;30.50;;
21705;SDS011;11014;53.076;18.208;2024-01-30T05:13:00;67.35;;;28.42;;
21705;SDS011;11014;53.076;18.208;2024-01-30T05:15:29;63.60;;;27.83;;
21705;SDS011;11014;53.076;18.208;2024-01-30T05:17:58;62.03;;;27.23;;
21705;SDS011;11014;53.076;18.208;2024-01-30T05:20:27;61.08;;;28.60;;
21705;SDS011;11014;53.076;18.208;2024-01-30T05:22:57;65.95;;;29.10;;
21705;SDS011;11014;53.076;18.208;2024-01-30T05:25:26;62.72;;;28.48;;
21705;SDS011;11014;53.076;18.208;2024-01-30T05:27:55;64.45;;;29.80;;
21705;SDS011;11014;53.076;18.208;2024-01-30T05:30:24;58.13;;;27.45;;
21705;SDS011;11014;53.076;18.208;2024-01-30T05:32:52;64.95;;;29.15;;
21705;SDS011;11014;53.076;18.208;2024-01-30T05:35:21;58.72;;;29.38;;
21705;SDS011;11014;53.076;18.208;2024-01-30T05:37:50;60.60;;;28.77;;
21705;SDS011;11014;53.076;18.208;2024-01-30T05:40:19;65.32;;;29.25;;
21705;SDS011;11014;53.076;18.208;2024-01-30T05:42:47;57.47;;;27.60;;
21705;SDS011;11014;53.076;18.208;2024-01-30T05:45:16;72.28;;;31.52;;
21705;SDS011;11014;53.076;18.208;2024-01-30T05:47:45;69.20;;;31.30;;
21705;SDS011;11014;53.076;18.208;2024-01-30T05:50:13;61.30;;;29.40;;
21705;SDS011;11014;53.076;18.208;2024-01-30T05:52:42;60.20;;;29.42;;
21705;SDS011;11014;53.076;18.208;2024-01-30T05:55:12;58.47;;;28.38;;
21705;SDS011;11014;53.076;18.208;2024-01-30T05:57:40;59.42;;;28.63;;
21705;SDS011;11014;53.076;18.208;2024-01-30T06:00:10;58.00;;;28.00;;
21705;SDS011;11014;53.076;18.208;2024-01-30T06:02:41;54.13;;;24.90;;
21705;SDS011;11014;53.076;18.208;2024-01-30T06:05:10;53.08;;;23.55;;
21705;SDS011;11014;53.076;18.208;2024-01-30T06:07:38;62.90;;;27.38;;
21705;SDS011;11014;53.076;18.208;2024-01-30T06:10:09;45.65;;;20.80;;
21705;SDS011;11014;53.076;18.208;2024-01-30T06:12:37;51.10;;;23.98;;
21705;SDS011;11014;53.076;18.208;2024-01-30T06:15:06;41.10;;;21.75;;
21705;SDS011;11014;53.076;18.208;2024-01-30T06:17:36;46.72;;;20.02;;
21705;SDS011;11014;53.076;18.208;2024-01-30T06:20:06;41.88;;;19.25;;
21705;SDS011;11014;53.076;18.208;2024-01-30T06:22:34;40.10;;;18.35;;
21705;SDS011;11014;53.076;18.208;2024-01-30T06:25:03;37.88;;;17.42;;
21705;SDS011;11014;53.076;18.208;2024-01-30T06:27:32;40.53;;;18.10;;
21705;SDS011;11014;53.076;18.208;2024-01-30T06:30:03;39.88;;;18.58;;
21705;SDS011;11014;53.076;18.208;2024-01-30T06:32:32;39.05;;;18.05;;
21705;SDS011;11014;53.076;18.208;2024-01-30T06:35:03;39.35;;;19.50;;
21705;SDS011;11014;53.076;18.208;2024-01-30T06:37:33;36.15;;;18.40;;
21705;SDS011;11014;53.076;18.208;2024-01-30T06:40:06;40.55;;;18.13;;
21705;SDS011;11014;53.076;18.208;2024-01-30T06:42:35;37.55;;;19.00;;
21705;SDS011;11014;53.076;18.208;2024-01-30T06:45:04;42.10;;;18.98;;
21705;SDS011;11014;53.076;18.208;2024-01-30T06:47:33;35.67;;;18.92;;
21705;SDS011;11014;53.076;18.208;2024-01-30T06:50:04;40.05;;;20.13;;
21705;SDS011;11014;53.076;18.208;2024-01-30T06:52:33;37.05;;;19.13;;
21705;SDS011;11014;53.076;18.208;2024-01-30T06:55:02;44.60;;;19.17;;
21705;SDS011;11014;53.076;18.208;2024-01-30T06:57:31;38.45;;;18.83;;
21705;SDS011;11014;53.076;18.208;2024-01-30T07:00:00;39.50;;;19.30;;
21705;SDS011;11014;53.076;18.208;2024-01-30T07:02:29;39.78;;;19.27;;
21705;SDS011;11014;53.076;18.208;2024-01-30T07:04:58;42.83;;;19.75;;
21705;SDS011;11014;53.076;18.208;2024-01-30T07:07:27;37.35;;;19.08;;
21705;SDS011;11014;53.076;18.208;2024-01-30T07:10:07;41.20;;;19.98;;
21705;SDS011;11014;53.076;18.208;2024-01-30T07:12:36;42.42;;;19.42;;
21705;SDS011;11014;53.076;18.208;2024-01-30T07:15:05;39.08;;;19.25;;
21705;SDS011;11014;53.076;18.208;2024-01-30T07:17:36;42.60;;;19.48;;
21705;SDS011;11014;53.076;18.208;2024-01-30T07:20:06;39.50;;;19.33;;
21705;SDS011;11014;53.076;18.208;2024-01-30T07:22:35;39.45;;;20.17;;
21705;SDS011;11014;53.076;18.208;2024-01-30T07:25:04;36.50;;;19.80;;
21705;SDS011;11014;53.076;18.208;2024-01-30T07:27:33;38.35;;;19.80;;
21705;SDS011;11014;53.076;18.208;2024-01-30T07:30:03;42.45;;;20.35;;
21705;SDS011;11014;53.076;18.208;2024-01-30T07:32:32;39.40;;;20.15;;
21705;SDS011;11014;53.076;18.208;2024-01-30T07:35:01;43.00;;;19.63;;
21705;SDS011;11014;53.076;18.208;2024-01-30T07:37:36;42.58;;;20.27;;
21705;SDS011;11014;53.076;18.208;2024-01-30T07:40:08;37.30;;;19.33;;
21705;SDS011;11014;53.076;18.208;2024-01-30T07:42:40;37.58;;;19.10;;
21705;SDS011;11014;53.076;18.208;2024-01-30T07:45:09;43.58;;;20.95;;
21705;SDS011;11014;53.076;18.208;2024-01-30T07:47:38;40.13;;;19.75;;
21705;SDS011;11014;53.076;18.208;2024-01-30T07:50:16;40.78;;;20.33;;
21705;SDS011;11014;53.076;18.208;2024-01-30T07:52:45;43.22;;;19.75;;
21705;SDS011;11014;53.076;18.208;2024-01-30T07:55:16;38.65;;;19.60;;
21705;SDS011;11014;53.076;18.208;2024-01-30T07:57:44;37.28;;;19.30;;
21705;SDS011;11014;53.076;18.208;2024-01-30T08:00:13;40.80;;;19.08;;
21705;SDS011;11014;53.076;18.208;2024-01-30T08:02:42;38.95;;;19.08;;
21705;SDS011;11014;53.076;18.208;2024-01-30T08:05:12;39.28;;;19.42;;
21705;SDS011;11014;53.076;18.208;2024-01-30T08:07:43;37.13;;;19.80;;
21705;SDS011;11014;53.076;18.208;2024-01-30T08:10:12;43.65;;;19.40;;
21705;SDS011;11014;53.076;18.208;2024-01-30T08:12:43;39.38;;;19.92;;
21705;SDS011;11014;53.076;18.208;2024-01-30T08:15:12;35.50;;;19.50;;
21705;SDS011;11014;53.076;18.208;2024-01-30T08:17:41;34.95;;;18.40;;
21705;SDS011;11014;53.076;18.208;2024-01-30T08:20:10;34.67;;;19.05;;
21705;SDS011;11014;53.076;18.208;2024-01-30T08:22:40;33.78;;;18.40;;
21705;SDS011;11014;53.076;18.208;2024-01-30T08:25:09;36.88;;;18.15;;
21705;SDS011;11014;53.076;18.208;2024-01-30T08:27:38;37.47;;;18.65;;
21705;SDS011;11014;53.076;18.208;2024-01-30T08:30:07;37.47;;;19.00;;
21705;SDS011;11014;53.076;18.208;2024-01-30T08:32:36;37.22;;;19.42;;
21705;SDS011;11014;53.076;18.208;2024-01-30T08:38:01;36.53;;;19.20;;
21705;SDS011;11014;53.076;18.208;2024-01-30T08:40:31;39.08;;;18.80;;
21705;SDS011;11014;53.076;18.208;2024-01-30T08:43:00;37.35;;;20.27;;
21705;SDS011;11014;53.076;18.208;2024-01-30T08:45:29;39.42;;;19.63;;
21705;SDS011;11014;53.076;18.208;2024-01-30T08:47:59;40.60;;;21.15;;
21705;SDS011;11014;53.076;18.208;2024-01-30T08:50:28;45.15;;;21.35;;
21705;SDS011;11014;53.076;18.208;2024-01-30T08:52:57;37.90;;;19.80;;
21705;SDS011;11014;53.076;18.208;2024-01-30T08:55:26;37.53;;;19.98;;
21705;SDS011;11014;53.076;18.208;2024-01-30T08:57:55;34.33;;;18.15;;
21705;SDS011;11014;53.076;18.208;2024-01-30T09:00:24;40.28;;;18.63;;
21705;SDS011;11014;53.076;18.208;2024-01-30T09:02:53;31.58;;;18.08;;
21705;SDS011;11014;53.076;18.208;2024-01-30T09:05:22;33.97;;;17.83;;
21705;SDS011;11014;53.076;18.208;2024-01-30T09:07:51;34.47;;;17.45;;
21705;SDS011;11014;53.076;18.208;2024-01-30T09:10:19;35.00;;;18.48;;
21705;SDS011;11014;53.076;18.208;2024-01-30T09:12:49;32.55;;;17.25;;
21705;SDS011;11014;53.076;18.208;2024-01-30T09:15:19;27.00;;;16.33;;
21705;SDS011;11014;53.076;18.208;2024-01-30T09:17:49;30.67;;;17.58;;
21705;SDS011;11014;53.076;18.208;2024-01-30T09:20:19;31.00;;;16.13;;
21705;SDS011;11014;53.076;18.208;2024-01-30T09:22:52;30.50;;;16.23;;
21705;SDS011;11014;53.076;18.208;2024-01-30T09:25:21;28.33;;;16.80;;
21705;SDS011;11014;53.076;18.208;2024-01-30T09:27:50;25.00;;;14.63;;
21705;SDS011;11014;53.076;18.208;2024-01-30T09:30:19;32.78;;;14.95;;
21705;SDS011;11014;53.076;18.208;2024-01-30T09:32:47;26.67;;;15.05;;
21705;SDS011;11014;53.076;18.208;2024-01-30T09:35:16;26.98;;;14.77;;
21705;SDS011;11014;53.076;18.208;2024-01-30T09:37:45;29.55;;;14.70;;
21705;SDS011;11014;53.076;18.208;2024-01-30T09:40:17;29.83;;;15.50;;
21705;SDS011;11014;53.076;18.208;2024-01-30T09:42:47;25.50;;;14.15;;
21705;SDS011;11014;53.076;18.208;2024-01-30T09:45:19;25.35;;;13.98;;
21705;SDS011;11014;53.076;18.208;2024-01-30T09:47:47;28.02;;;15.05;;
21705;SDS011;11014;53.076;18.208;2024-01-30T09:50:17;29.75;;;14.65;;
21705;SDS011;11014;53.076;18.208;2024-01-30T09:52:46;28.58;;;14.32;;
21705;SDS011;11014;53.076;18.208;2024-01-30T09:55:16;27.15;;;14.02;;
21705;SDS011;11014;53.076;18.208;2024-01-30T09:57:44;29.77;;;14.02;;
21705;SDS011;11014;53.076;18.208;2024-01-30T10:00:13;28.83;;;14.00;;
21705;SDS011;11014;53.076;18.208;2024-01-30T10:02:44;24.92;;;13.57;;
21705;SDS011;11014;53.076;18.208;2024-01-30T10:05:15;26.40;;;13.93;;
21705;SDS011;11014;53.076;18.208;2024-01-30T10:07:55;24.42;;;13.30;;
21705;SDS011;11014;53.076;18.208;2024-01-30T10:10:25;21.08;;;13.25;;
21705;SDS011;11014;53.076;18.208;2024-01-30T10:12:54;24.30;;;13.90;;
21705;SDS011;11014;53.076;18.208;2024-01-30T10:15:23;23.52;;;12.63;;
21705;SDS011;11014;53.076;18.208;2024-01-30T10:17:53;25.83;;;12.77;;
21705;SDS011;11014;53.076;18.208;2024-01-30T10:20:24;25.05;;;12.82;;
21705;SDS011;11014;53.076;18.208;2024-01-30T10:22:53;23.48;;;13.05;;
21705;SDS011;11014;53.076;18.208;2024-01-30T10:25:22;26.40;;;12.60;;
21705;SDS011;11014;53.076;18.208;2024-01-30T10:27:55;24.10;;;12.82;;
21705;SDS011;11014;53.076;18.208;2024-01-30T10:30:24;23.38;;;12.85;;
21705;SDS011;11014;53.076;18.208;2024-01-30T10:32:56;23.02;;;12.68;;
21705;SDS011;11014;53.076;18.208;2024-01-30T10:35:28;22.25;;;12.05;;
21705;SDS011;11014;53.076;18.208;2024-01-30T10:37:57;20.65;;;10.98;;
21705;SDS011;11014;53.076;18.208;2024-01-30T10:40:28;22.83;;;11.90;;
21705;SDS011;11014;53.076;18.208;2024-01-30T10:43:05;20.80;;;10.95;;
21705;SDS011;11014;53.076;18.208;2024-01-30T10:45:39;19.90;;;12.30;;
21705;SDS011;11014;53.076;18.208;2024-01-30T10:48:13;21.05;;;11.82;;
21705;SDS011;11014;53.076;18.208;2024-01-30T10:51:03;22.15;;;12.27;;
21705;SDS011;11014;53.076;18.208;2024-01-30T10:53:33;19.60;;;11.02;;
21705;SDS011;11014;53.076;18.208;2024-01-30T10:56:03;22.23;;;10.88;;
21705;SDS011;11014;53.076;18.208;2024-01-30T10:58:33;20.58;;;11.50;;
21705;SDS011;11014;53.076;18.208;2024-01-30T11:01:05;22.98;;;12.60;;
21705;SDS011;11014;53.076;18.208;2024-01-30T11:03:36;23.40;;;11.90;;
21705;SDS011;11014;53.076;18.208;2024-01-30T11:06:10;22.75;;;11.73;;
21705;SDS011;11014;53.076;18.208;2024-01-30T11:08:39;19.38;;;11.63;;
21705;SDS011;11014;53.076;18.208;2024-01-30T11:11:50;22.88;;;11.30;;
21705;SDS011;11014;53.076;18.208;2024-01-30T11:14:27;24.00;;;11.50;;
21705;SDS011;11014;53.076;18.208;2024-01-30T11:17:27;19.15;;;11.48;;
21705;SDS011;11014;53.076;18.208;2024-01-30T11:19:58;20.60;;;12.02;;
21705;SDS011;11014;53.076;18.208;2024-01-30T11:22:30;23.85;;;10.70;;
21705;SDS011;11014;53.076;18.208;2024-01-30T11:24:59;22.58;;;12.10;;
21705;SDS011;11014;53.076;18.208;2024-01-30T11:27:52;20.48;;;11.18;;
21705;SDS011;11014;53.076;18.208;2024-01-30T11:30:32;20.73;;;11.73;;
21705;SDS011;11014;53.076;18.208;2024-01-30T11:33:03;20.15;;;12.02;;
21705;SDS011;11014;53.076;18.208;2024-01-30T11:35:43;21.33;;;11.48;;
21705;SDS011;11014;53.076;18.208;2024-01-30T11:38:28;20.88;;;11.45;;
21705;SDS011;11014;53.076;18.208;2024-01-30T11:41:09;22.48;;;12.05;;
21705;SDS011;11014;53.076;18.208;2024-01-30T11:43:38;22.90;;;12.65;;
21705;SDS011;11014;53.076;18.208;2024-01-30T11:46:07;23.05;;;12.52;;
21705;SDS011;11014;53.076;18.208;2024-01-30T11:48:36;19.83;;;11.68;;
21705;SDS011;11014;53.076;18.208;2024-01-30T11:51:06;25.17;;;13.30;;
21705;SDS011;11014;53.076;18.208;2024-01-30T11:53:36;22.05;;;13.00;;
21705;SDS011;11014;53.076;18.208;2024-01-30T11:56:08;22.27;;;12.40;;
21705;SDS011;11014;53.076;18.208;2024-01-30T11:58:36;22.92;;;13.57;;
21705;SDS011;11014;53.076;18.208;2024-01-30T12:01:05;24.20;;;13.50;;
21705;SDS011;11014;53.076;18.208;2024-01-30T12:03:34;23.58;;;13.18;;
21705;SDS011;11014;53.076;18.208;2024-01-30T12:06:03;24.98;;;13.02;;
21705;SDS011;11014;53.076;18.208;2024-01-30T12:08:33;23.95;;;12.75;;
21705;SDS011;11014;53.076;18.208;2024-01-30T12:11:01;21.98;;;12.68;;
21705;SDS011;11014;53.076;18.208;2024-01-30T12:13:33;21.35;;;12.43;;
21705;SDS011;11014;53.076;18.208;2024-01-30T12:16:02;22.75;;;12.05;;
21705;SDS011;11014;53.076;18.208;2024-01-30T12:18:31;20.30;;;11.90;;
21705;SDS011;11014;53.076;18.208;2024-01-30T12:21:01;22.52;;;12.48;;
21705;SDS011;11014;53.076;18.208;2024-01-30T12:23:30;22.90;;;11.68;;
21705;SDS011;11014;53.076;18.208;2024-01-30T12:25:59;18.63;;;11.95;;
21705;SDS011;11014;53.076;18.208;2024-01-30T12:28:29;20.33;;;12.18;;
21705;SDS011;11014;53.076;18.208;2024-01-30T12:31:02;19.83;;;11.73;;
21705;SDS011;11014;53.076;18.208;2024-01-30T12:33:31;23.08;;;11.98;;
21705;SDS011;11014;53.076;18.208;2024-01-30T12:38:57;21.25;;;12.45;;
21705;SDS011;11014;53.076;18.208;2024-01-30T12:41:44;17.48;;;11.82;;
21705;SDS011;11014;53.076;18.208;2024-01-30T12:44:15;21.48;;;12.68;;
21705;SDS011;11014;53.076;18.208;2024-01-30T12:46:44;20.70;;;11.77;;
21705;SDS011;11014;53.076;18.208;2024-01-30T12:49:15;21.10;;;12.57;;
21705;SDS011;11014;53.076;18.208;2024-01-30T12:51:44;24.27;;;12.70;;
21705;SDS011;11014;53.076;18.208;2024-01-30T12:54:13;21.92;;;12.88;;
21705;SDS011;11014;53.076;18.208;2024-01-30T12:56:46;21.40;;;11.93;;
21705;SDS011;11014;53.076;18.208;2024-01-30T12:59:15;24.17;;;12.50;;
21705;SDS011;11014;53.076;18.208;2024-01-30T13:01:44;26.60;;;13.07;;
21705;SDS011;11014;53.076;18.208;2024-01-30T13:04:13;22.33;;;13.52;;
21705;SDS011;11014;53.076;18.208;2024-01-30T13:06:43;20.10;;;13.05;;
21705;SDS011;11014;53.076;18.208;2024-01-30T13:09:12;25.30;;;14.30;;
21705;SDS011;11014;53.076;18.208;2024-01-30T13:11:40;23.65;;;13.07;;
21705;SDS011;11014;53.076;18.208;2024-01-30T13:14:18;23.20;;;13.98;;
21705;SDS011;11014;53.076;18.208;2024-01-30T13:16:49;23.90;;;13.75;;
21705;SDS011;11014;53.076;18.208;2024-01-30T13:19:17;23.15;;;14.00;;
21705;SDS011;11014;53.076;18.208;2024-01-30T13:21:47;20.83;;;12.82;;
21705;SDS011;11014;53.076;18.208;2024-01-30T13:24:15;22.80;;;14.13;;
21705;SDS011;11014;53.076;18.208;2024-01-30T13:26:45;23.38;;;13.80;;
21705;SDS011;11014;53.076;18.208;2024-01-30T13:29:14;25.52;;;14.38;;
21705;SDS011;11014;53.076;18.208;2024-01-30T13:31:42;22.42;;;14.63;;
21705;SDS011;11014;53.076;18.208;2024-01-30T13:34:12;23.45;;;14.98;;
21705;SDS011;11014;53.076;18.208;2024-01-30T13:36:42;22.90;;;14.18;;
21705;SDS011;11014;53.076;18.208;2024-01-30T13:39:13;23.00;;;14.50;;
21705;SDS011;11014;53.076;18.208;2024-01-30T13:41:42;25.65;;;13.60;;
21705;SDS011;11014;53.076;18.208;2024-01-30T13:44:11;22.02;;;13.57;;
21705;SDS011;11014;53.076;18.208;2024-01-30T13:46:40;23.77;;;13.75;;
21705;SDS011;11014;53.076;18.208;2024-01-30T13:49:10;22.05;;;13.15;;
21705;SDS011;11014;53.076;18.208;2024-01-30T13:51:39;22.00;;;13.40;;
21705;SDS011;11014;53.076;18.208;2024-01-30T13:54:08;25.67;;;13.50;;
21705;SDS011;11014;53.076;18.208;2024-01-30T13:56:37;23.50;;;13.80;;
21705;SDS011;11014;53.076;18.208;2024-01-30T14:01:59;21.58;;;13.15;;
21705;SDS011;11014;53.076;18.208;2024-01-30T14:04:28;21.30;;;13.13;;
21705;SDS011;11014;53.076;18.208;2024-01-30T14:06:58;21.98;;;14.07;;
21705;SDS011;11014;53.076;18.208;2024-01-30T14:09:32;25.25;;;14.25;;
21705;SDS011;11014;53.076;18.208;2024-01-30T14:12:02;24.42;;;13.93;;
21705;SDS011;11014;53.076;18.208;2024-01-30T14:14:31;23.35;;;14.68;;
21705;SDS011;11014;53.076;18.208;2024-01-30T14:17:00;25.15;;;16.10;;
21705;SDS011;11014;53.076;18.208;2024-01-30T14:19:30;27.48;;;15.68;;
21705;SDS011;11014;53.076;18.208;2024-01-30T14:21:59;25.73;;;15.85;;
21705;SDS011;11014;53.076;18.208;2024-01-30T14:24:28;27.35;;;15.95;;
21705;SDS011;11014;53.076;18.208;2024-01-30T14:26:57;25.17;;;15.75;;
21705;SDS011;11014;53.076;18.208;2024-01-30T14:29:25;28.00;;;16.52;;
21705;SDS011;11014;53.076;18.208;2024-01-30T14:31:54;26.80;;;16.05;;
21705;SDS011;11014;53.076;18.208;2024-01-30T14:34:24;25.92;;;16.27;;
21705;SDS011;11014;53.076;18.208;2024-01-30T14:36:53;25.45;;;15.55;;